Time;durP1;ratioP1;P1;durP2;ratioP2;P2;SDS_P1;SDS_P2;PMS_P1;PMS_P2;Temp;Humidity;BMP_temperature;BMP_pressure;BME280_temperature;BME280_humidity;BME280_pressure;Samples;Min_cycle;Max_cycle;Signal;HPM_P1;HPM_P2
2023/09/25 00:00:40;;;;;;;4.88;2.40;;;13.60;46.50;;;;;;5052574;28;20823;-75
2023/09/25 00:03:06;;;;;;;3.83;2.22;;;13.70;46.00;;;;;;5052014;28;20385;-74
2023/09/25 00:05:31;;;;;;;4.30;2.10;;;13.70;46.00;;;;;;5052084;28;20404;-77
2023/09/25 00:07:57;;;;;;;3.80;2.60;;;13.80;45.30;;;;;;5052144;28;20874;-75
2023/09/25 00:10:23;;;;;;;4.90;2.28;;;13.80;45.80;;;;;;5052520;28;20904;-76
2023/09/25 00:12:49;;;;;;;4.25;2.20;;;13.80;45.60;;;;;;5034084;28;20424;-75
2023/09/25 00:15:15;;;;;;;5.57;2.40;;;13.80;45.10;;;;;;5052250;28;20385;-75
2023/09/25 00:17:42;;;;;;;4.30;2.40;;;13.80;44.70;;;;;;5034076;28;20413;-75
2023/09/25 00:20:10;;;;;;;2.60;1.95;;;13.80;44.60;;;;;;5051614;28;20381;-75
2023/09/25 00:22:39;;;;;;;4.85;2.55;;;13.90;44.10;;;;;;5051449;28;20436;-75
2023/09/25 00:25:06;;;;;;;4.90;1.90;;;13.90;44.20;;;;;;5051392;28;20789;-75
2023/09/25 00:27:32;;;;;;;2.20;1.92;;;13.90;44.60;;;;;;5051430;28;20742;-76
2023/09/25 00:29:58;;;;;;;3.90;2.30;;;13.90;44.20;;;;;;5051447;28;20381;-76
2023/09/25 00:32:24;;;;;;;4.10;2.28;;;13.80;44.90;;;;;;5033149;28;20723;-75
2023/09/25 00:34:49;;;;;;;3.00;2.30;;;13.80;45.20;;;;;;5050738;28;20416;-76
2023/09/25 00:37:15;;;;;;;2.53;1.80;;;13.70;45.70;;;;;;5051057;28;20973;-76
2023/09/25 00:39:42;;;;;;;4.60;2.40;;;13.70;45.90;;;;;;5051431;28;20444;-75
2023/09/25 00:42:08;;;;;;;4.70;2.27;;;13.70;45.70;;;;;;5033337;28;20676;-76
2023/09/25 00:44:34;;;;;;;3.03;2.17;;;13.70;45.30;;;;;;5034299;28;20385;-77
2023/09/25 00:46:59;;;;;;;4.32;2.45;;;13.70;45.00;;;;;;5051783;28;20385;-76
2023/09/25 00:49:26;;;;;;;3.85;2.22;;;13.70;45.80;;;;;;5051480;28;20397;-77
2023/09/25 00:51:52;;;;;;;4.47;2.17;;;13.60;46.20;;;;;;5051027;28;20392;-76
2023/09/25 00:54:19;;;;;;;3.00;2.28;;;13.60;46.30;;;;;;5051428;28;20881;-75
2023/09/25 00:56:46;;;;;;;2.35;2.15;;;13.60;46.30;;;;;;5051024;28;20413;-77
2023/09/25 00:59:12;;;;;;;4.50;2.22;;;13.60;47.10;;;;;;5051222;28;20432;-77
2023/09/25 01:01:38;;;;;;;3.55;1.98;;;13.50;46.80;;;;;;5051463;28;20495;-77
2023/09/25 01:04:05;;;;;;;3.97;2.30;;;13.60;46.70;;;;;;5051208;28;20904;-76
2023/09/25 01:06:30;;;;;;;3.92;2.50;;;13.60;46.70;;;;;;5050981;28;20731;-75
2023/09/25 01:08:56;;;;;;;4.47;2.40;;;13.50;47.50;;;;;;5050817;28;20400;-76
2023/09/25 01:11:22;;;;;;;2.80;2.20;;;13.50;46.80;;;;;;5050490;28;20393;-76
2023/09/25 01:13:48;;;;;;;4.03;1.90;;;13.60;46.20;;;;;;5051685;28;20447;-76
2023/09/25 01:16:13;;;;;;;4.05;2.20;;;13.60;46.40;;;;;;5059102;28;20386;-75
2023/09/25 01:18:39;;;;;;;4.35;2.17;;;13.60;46.40;;;;;;5063804;28;20463;-76
2023/09/25 01:21:05;;;;;;;3.80;2.50;;;13.50;46.60;;;;;;5067035;28;20386;-76
2023/09/25 01:23:30;;;;;;;3.40;2.30;;;13.60;46.60;;;;;;5052428;28;20381;-76
2023/09/25 01:25:56;;;;;;;3.70;2.10;;;13.50;46.80;;;;;;5052632;28;20379;-76
2023/09/25 01:28:21;;;;;;;2.47;2.27;;;13.50;46.80;;;;;;5051993;28;20409;-76
2023/09/25 01:30:47;;;;;;;3.53;2.00;;;13.40;46.70;;;;;;5052317;28;20404;-76
2023/09/25 01:33:13;;;;;;;7.38;2.00;;;13.40;46.60;;;;;;5051298;28;20392;-75
2023/09/25 01:35:39;;;;;;;4.18;2.33;;;13.40;47.00;;;;;;5051070;28;20464;-76
2023/09/25 01:38:04;;;;;;;3.30;2.05;;;13.40;48.20;;;;;;5032676;28;20405;-75
2023/09/25 01:40:31;;;;;;;3.15;2.22;;;13.30;47.70;;;;;;5050478;28;20462;-75
2023/09/25 01:42:56;;;;;;;2.80;2.20;;;13.20;48.20;;;;;;5051242;28;20381;-74
2023/09/25 01:45:22;;;;;;;6.63;2.43;;;13.20;48.20;;;;;;5054705;28;20385;-75
2023/09/25 01:47:50;;;;;;;4.20;2.00;;;13.10;48.60;;;;;;5055918;28;20404;-75
2023/09/25 01:50:17;;;;;;;4.07;1.98;;;13.20;48.70;;;;;;5055689;28;20389;-75
2023/09/25 01:52:45;;;;;;;5.60;2.15;;;13.30;47.70;;;;;;5056322;28;20727;-74
2023/09/25 01:55:11;;;;;;;3.20;2.00;;;13.20;47.80;;;;;;5036560;28;20412;-75
2023/09/25 01:57:36;;;;;;;4.30;2.20;;;13.30;47.50;;;;;;5054984;28;20405;-75
2023/09/25 02:00:07;;;;;;;2.33;1.90;;;13.30;47.20;;;;;;5057379;28;20382;-75
2023/09/25 02:02:33;;;;;;;4.43;2.15;;;13.20;47.50;;;;;;5058416;28;20411;-74
2023/09/25 02:04:59;;;;;;;3.75;2.13;;;13.20;48.00;;;;;;5058587;28;20381;-75
2023/09/25 02:07:25;;;;;;;2.57;2.37;;;13.20;48.30;;;;;;5057385;28;20960;-74
2023/09/25 02:09:51;;;;;;;3.58;2.40;;;13.10;48.70;;;;;;5057041;28;20389;-74
2023/09/25 02:12:16;;;;;;;4.93;2.42;;;13.10;49.00;;;;;;5055839;28;20389;-75
2023/09/25 02:14:42;;;;;;;3.10;2.10;;;13.00;49.30;;;;;;5054985;28;20411;-75
2023/09/25 02:17:08;;;;;;;3.00;2.40;;;13.00;49.80;;;;;;5035874;28;20408;-75
2023/09/25 02:19:33;;;;;;;3.10;2.10;;;12.90;50.60;;;;;;5054059;28;20464;-75
2023/09/25 02:21:59;;;;;;;4.93;2.20;;;12.90;50.20;;;;;;5053932;28;20929;-75
2023/09/25 02:24:24;;;;;;;4.03;2.40;;;12.90;50.40;;;;;;5053744;28;20381;-76
2023/09/25 02:26:50;;;;;;;2.93;2.30;;;12.90;50.40;;;;;;5053764;28;20408;-75
2023/09/25 02:29:15;;;;;;;3.60;2.20;;;12.90;50.00;;;;;;5035720;28;20398;-76
2023/09/25 02:31:41;;;;;;;3.30;2.30;;;12.80;50.10;;;;;;5053391;28;20385;-76
2023/09/25 02:34:14;;;;;;;4.60;2.10;;;12.80;50.60;;;;;;5053563;28;20797;-76
2023/09/25 02:36:40;;;;;;;3.13;2.10;;;12.70;51.80;;;;;;5053648;28;20401;-76
2023/09/25 02:39:06;;;;;;;3.53;2.30;;;12.70;51.40;;;;;;5053856;28;20716;-75
2023/09/25 02:41:32;;;;;;;3.80;2.20;;;12.70;52.00;;;;;;5053605;28;20417;-75
2023/09/25 02:43:58;;;;;;;6.20;2.40;;;12.70;51.50;;;;;;5053409;28;20911;-76
2023/09/25 02:46:23;;;;;;;5.60;2.43;;;12.70;51.80;;;;;;5053694;28;20424;-75
2023/09/25 02:48:49;;;;;;;5.70;2.65;;;12.70;51.70;;;;;;5053445;28;20397;-76
2023/09/25 02:51:14;;;;;;;3.42;2.40;;;12.60;52.50;;;;;;5053283;28;20385;-76
2023/09/25 02:53:40;;;;;;;2.83;2.30;;;12.50;53.50;;;;;;5053552;28;20395;-75
2023/09/25 02:56:05;;;;;;;3.47;2.30;;;12.50;53.70;;;;;;5052256;28;20389;-76
2023/09/25 02:58:31;;;;;;;6.20;2.70;;;12.50;52.90;;;;;;5054143;28;20393;-75
2023/09/25 03:00:59;;;;;;;3.67;2.55;;;12.50;54.20;;;;;;5054862;28;20759;-75
2023/09/25 03:03:24;;;;;;;4.63;2.50;;;12.40;54.10;;;;;;5038251;28;20381;-74
2023/09/25 03:05:50;;;;;;;3.15;2.70;;;12.30;55.00;;;;;;5054945;28;20370;-75
2023/09/25 03:08:15;;;;;;;3.80;2.50;;;12.50;54.30;;;;;;5057071;28;20384;-76
2023/09/25 03:10:41;;;;;;;5.97;2.70;;;12.30;55.40;;;;;;5057164;28;20381;-75
2023/09/25 03:13:06;;;;;;;3.83;2.73;;;12.40;55.10;;;;;;5056366;28;20446;-76
2023/09/25 03:15:32;;;;;;;6.70;2.60;;;12.30;55.20;;;;;;5035689;28;20390;-76
2023/09/25 03:17:58;;;;;;;2.60;2.40;;;12.30;55.10;;;;;;5054080;28;20508;-76
2023/09/25 03:20:24;;;;;;;4.80;2.50;;;12.30;55.80;;;;;;5054484;28;20474;-76
2023/09/25 03:22:49;;;;;;;5.63;2.60;;;12.30;56.30;;;;;;5053677;28;20888;-76
2023/09/25 03:25:15;;;;;;;4.18;2.40;;;12.30;56.20;;;;;;5052742;28;20461;-76
2023/09/25 03:27:40;;;;;;;3.10;2.60;;;12.20;56.90;;;;;;5052622;28;20881;-76
2023/09/25 03:30:07;;;;;;;3.00;2.70;;;12.20;57.50;;;;;;5052896;28;20398;-75
2023/09/25 03:32:33;;;;;;;5.07;2.47;;;12.10;57.60;;;;;;5052507;28;20783;-75
2023/09/25 03:34:58;;;;;;;5.55;2.85;;;12.10;57.20;;;;;;5052310;28;20413;-75
2023/09/25 03:37:24;;;;;;;5.50;3.08;;;12.10;57.20;;;;;;5034339;28;20843;-76
2023/09/25 03:39:49;;;;;;;6.67;3.00;;;12.10;57.10;;;;;;5052506;28;20474;-75
2023/09/25 03:42:16;;;;;;;3.78;2.75;;;12.10;58.20;;;;;;5052645;28;20428;-75
2023/09/25 03:44:41;;;;;;;9.05;2.55;;;12.10;58.30;;;;;;5053305;28;20381;-75
2023/09/25 03:47:07;;;;;;;5.00;2.75;;;12.10;58.00;;;;;;5053351;28;20397;-75
2023/09/25 03:49:32;;;;;;;4.03;2.70;;;12.20;57.40;;;;;;5055615;28;20439;-75
2023/09/25 03:51:58;;;;;;;3.60;2.63;;;12.10;57.40;;;;;;5057007;28;20444;-75
2023/09/25 03:54:24;;;;;;;3.38;2.67;;;12.00;58.60;;;;;;5057631;28;20397;-75
2023/09/25 03:56:49;;;;;;;4.05;2.65;;;12.00;59.20;;;;;;5057282;28;20466;-75
2023/09/25 03:59:15;;;;;;;5.43;2.60;;;11.90;59.70;;;;;;5057862;28;20386;-75
2023/09/25 04:01:40;;;;;;;3.67;2.53;;;11.80;60.80;;;;;;5057053;28;20381;-75
2023/09/25 04:04:06;;;;;;;3.27;2.67;;;11.90;60.40;;;;;;5039509;28;20386;-75
2023/09/25 04:06:33;;;;;;;3.30;3.00;;;12.00;59.90;;;;;;5057048;28;20867;-75
2023/09/25 04:08:59;;;;;;;5.50;2.83;;;12.00;60.20;;;;;;5056926;28;20834;-75
2023/09/25 04:11:24;;;;;;;9.05;3.70;;;12.30;62.20;;;;;;5058456;28;20398;-75
2023/09/25 04:13:50;;;;;;;8.98;3.63;;;12.00;61.40;;;;;;5054853;28;20388;-73
2023/09/25 04:16:16;;;;;;;3.67;3.00;;;12.00;62.40;;;;;;5052793;28;20420;-74
2023/09/25 04:18:45;;;;;;;4.90;2.80;;;12.00;62.90;;;;;;5052726;28;20480;-74
2023/09/25 04:21:14;;;;;;;4.55;2.80;;;12.10;59.90;;;;;;5052722;28;20881;-75
2023/09/25 04:23:40;;;;;;;7.40;2.90;;;12.00;60.10;;;;;;5052647;28;20858;-75
2023/09/25 04:26:06;;;;;;;5.10;3.20;;;12.00;61.40;;;;;;5052760;28;20382;-75
2023/09/25 04:28:32;;;;;;;4.90;3.20;;;12.00;63.30;;;;;;5055029;28;20745;-75
2023/09/25 04:31:02;;;;;;;10.20;3.30;;;11.90;62.70;;;;;;5034557;28;20389;-73
2023/09/25 04:33:28;;;;;;;4.20;2.80;;;11.80;63.40;;;;;;5052240;28;20449;-74
2023/09/25 04:35:58;;;;;;;6.63;3.20;;;11.80;63.60;;;;;;5052972;28;20390;-74
2023/09/25 04:38:27;;;;;;;3.10;2.80;;;11.80;64.60;;;;;;5052537;28;20956;-76
2023/09/25 04:40:54;;;;;;;5.88;2.45;;;11.80;63.60;;;;;;5052321;28;20392;-76
2023/09/25 04:43:20;;;;;;;4.90;3.30;;;11.80;63.40;;;;;;5052014;28;20377;-75
2023/09/25 04:45:46;;;;;;;5.20;2.90;;;11.90;64.00;;;;;;5051772;28;20389;-75
2023/09/25 04:48:13;;;;;;;5.00;2.80;;;12.00;63.10;;;;;;5051926;28;20400;-74
2023/09/25 04:50:40;;;;;;;5.30;2.50;;;12.10;61.30;;;;;;5052751;28;20386;-75
2023/09/25 04:53:08;;;;;;;5.72;2.80;;;12.10;59.90;;;;;;5052683;28;20389;-75
2023/09/25 04:55:36;;;;;;;4.32;2.72;;;12.20;58.80;;;;;;5033972;28;20421;-74
2023/09/25 04:58:02;;;;;;;4.10;2.60;;;12.20;59.60;;;;;;5050930;28;20401;-76
2023/09/25 05:00:27;;;;;;;3.65;2.50;;;12.30;58.70;;;;;;5050677;28;20380;-75
2023/09/25 05:02:55;;;;;;;2.97;2.50;;;12.30;58.90;;;;;;5050803;28;20896;-77
2023/09/25 05:05:22;;;;;;;4.10;2.88;;;12.40;56.60;;;;;;5032732;28;20385;-75
2023/09/25 05:07:49;;;;;;;5.60;3.10;;;12.50;55.90;;;;;;5050433;28;20416;-76
2023/09/25 05:10:17;;;;;;;6.03;2.95;;;12.50;54.70;;;;;;5051696;28;20385;-75
2023/09/25 05:12:44;;;;;;;4.38;2.80;;;12.50;55.00;;;;;;5050468;28;20391;-75
2023/09/25 05:15:12;;;;;;;28.50;17.60;;;12.60;54.10;;;;;;5050501;28;20926;-76
2023/09/25 05:17:39;;;;;;;7.28;4.47;;;12.70;54.40;;;;;;5050332;28;20409;-76
2023/09/25 05:20:15;;;;;;;9.00;3.40;;;12.70;53.30;;;;;;5049656;28;20870;-76
2023/09/25 05:22:43;;;;;;;5.70;3.78;;;12.70;53.40;;;;;;5050585;28;20798;-75
2023/09/25 05:25:10;;;;;;;10.38;6.45;;;12.60;53.20;;;;;;5050104;28;20465;-74
2023/09/25 05:27:36;;;;;;;7.88;4.00;;;12.60;53.90;;;;;;5050063;28;20881;-74
2023/09/25 05:30:09;;;;;;;11.57;5.32;;;12.60;54.00;;;;;;5032384;28;20539;-76
2023/09/25 05:32:35;;;;;;;4.80;3.03;;;12.70;54.20;;;;;;5050689;28;20740;-76
2023/09/25 05:35:01;;;;;;;9.15;5.78;;;12.70;53.80;;;;;;5051910;28;20412;-74
2023/09/25 05:37:27;;;;;;;7.20;3.20;;;12.70;53.40;;;;;;5050429;28;20409;-76
2023/09/25 05:39:52;;;;;;;17.10;12.20;;;12.70;52.30;;;;;;5050283;28;20741;-76
2023/09/25 05:42:18;;;;;;;8.57;5.20;;;12.70;53.00;;;;;;5033067;28;20439;-76
2023/09/25 05:44:43;;;;;;;5.25;3.40;;;12.70;52.50;;;;;;5049726;28;20432;-76
2023/09/25 05:47:09;;;;;;;9.57;4.55;;;12.70;51.50;;;;;;5050683;28;20916;-76
2023/09/25 05:49:35;;;;;;;5.82;4.10;;;12.80;53.10;;;;;;5053103;28;20399;-76
2023/09/25 05:52:00;;;;;;;3.70;3.00;;;12.90;51.60;;;;;;5033154;28;20381;-76
2023/09/25 05:54:26;;;;;;;6.90;4.40;;;12.90;50.70;;;;;;5050413;28;20865;-77
2023/09/25 05:56:51;;;;;;;8.90;5.70;;;12.90;51.80;;;;;;5051199;28;20419;-75
2023/09/25 05:59:17;;;;;;;5.40;3.30;;;12.90;52.30;;;;;;5031894;28;20431;-76
2023/09/25 06:01:43;;;;;;;14.10;8.52;;;13.00;51.20;;;;;;5055243;28;20747;-76
2023/09/25 06:04:09;;;;;;;11.02;6.20;;;13.00;51.20;;;;;;5050362;28;20381;-76
2023/09/25 06:06:35;;;;;;;5.60;3.88;;;13.10;49.80;;;;;;5050477;28;20523;-76
2023/09/25 06:09:02;;;;;;;8.52;3.55;;;13.20;49.70;;;;;;5049987;28;20436;-75
2023/09/25 06:11:28;;;;;;;5.53;3.17;;;13.20;49.60;;;;;;5053057;28;20450;-74
2023/09/25 06:13:54;;;;;;;8.63;5.63;;;13.30;48.20;;;;;;5047724;28;20433;-74
2023/09/25 06:16:19;;;;;;;7.30;5.30;;;13.30;48.90;;;;;;5037366;28;20493;-74
2023/09/25 06:18:46;;;;;;;4.90;2.80;;;13.40;48.30;;;;;;5041998;28;20409;-75
2023/09/25 06:21:13;;;;;;;7.72;4.82;;;13.50;47.40;;;;;;5047412;28;20392;-73
2023/09/25 06:23:42;;;;;;;4.60;3.60;;;13.60;47.70;;;;;;5028214;28;20762;-75
2023/09/25 06:26:09;;;;;;;4.15;2.50;;;13.70;46.00;;;;;;5010162;28;20390;-75
2023/09/25 06:28:34;;;;;;;5.82;2.58;;;13.80;45.00;;;;;;5027745;28;20395;-74
2023/09/25 06:31:00;;;;;;;4.77;2.60;;;13.80;46.00;;;;;;5035915;28;20400;-73
2023/09/25 06:33:28;;;;;;;4.20;2.07;;;13.90;44.80;;;;;;5051229;28;20412;-75
2023/09/25 06:35:54;;;;;;;4.53;2.20;;;13.90;44.60;;;;;;5051000;28;20424;-74
2023/09/25 06:38:19;;;;;;;3.87;2.73;;;14.00;44.00;;;;;;5051265;28;20441;-77
2023/09/25 06:40:45;;;;;;;4.77;2.60;;;14.10;43.50;;;;;;5052251;28;20422;-75
2023/09/25 06:43:12;;;;;;;6.10;3.47;;;14.20;43.10;;;;;;5051530;28;20382;-76
2023/09/25 06:45:38;;;;;;;5.13;3.17;;;14.20;43.40;;;;;;5051813;28;20472;-74
2023/09/25 06:48:04;;;;;;;3.72;2.70;;;14.30;42.50;;;;;;5050680;28;20409;-76
2023/09/25 06:50:30;;;;;;;3.10;2.10;;;14.50;42.10;;;;;;5047039;28;20390;-75
2023/09/25 06:52:56;;;;;;;6.18;3.10;;;14.50;41.50;;;;;;5050469;28;20397;-75
2023/09/25 06:55:22;;;;;;;7.60;2.60;;;14.60;41.00;;;;;;5051583;28;20412;-75
2023/09/25 06:57:48;;;;;;;4.22;2.60;;;14.70;40.90;;;;;;5025134;28;20406;-75
2023/09/25 07:00:14;;;;;;;5.03;2.30;;;14.80;40.60;;;;;;5031150;28;20453;-75
2023/09/25 07:02:40;;;;;;;4.80;2.30;;;14.80;39.90;;;;;;5042167;28;20413;-74
2023/09/25 07:05:06;;;;;;;5.03;2.15;;;15.00;39.70;;;;;;5020638;28;20397;-75
2023/09/25 07:07:38;;;;;;;3.80;2.60;;;15.00;39.00;;;;;;5050670;28;20487;-74
2023/09/25 07:10:06;;;;;;;3.08;2.50;;;15.10;39.20;;;;;;5051520;28;20874;-76
2023/09/25 07:12:33;;;;;;;8.05;2.60;;;15.20;38.40;;;;;;5048635;28;20412;-74
2023/09/25 07:15:00;;;;;;;4.00;2.20;;;15.30;38.20;;;;;;5050753;28;20887;-75
2023/09/25 07:17:26;;;;;;;5.43;2.20;;;15.40;37.60;;;;;;5031793;28;20409;-74
2023/09/25 07:19:52;;;;;;;3.40;2.30;;;15.50;37.10;;;;;;5050404;28;20519;-75
2023/09/25 07:22:20;;;;;;;2.67;2.30;;;15.60;36.90;;;;;;5049965;28;20390;-74
2023/09/25 07:24:45;;;;;;;6.80;2.20;;;15.70;36.40;;;;;;5049888;28;20397;-74
2023/09/25 07:27:11;;;;;;;2.87;2.10;;;15.70;36.80;;;;;;5030330;28;20421;-76
2023/09/25 07:29:37;;;;;;;8.00;2.30;;;15.80;35.90;;;;;;5049926;28;20455;-76
2023/09/25 07:32:03;;;;;;;6.87;2.47;;;15.90;35.30;;;;;;5050000;28;20499;-75
2023/09/25 07:34:32;;;;;;;7.50;2.22;;;16.10;35.00;;;;;;5047155;28;20480;-76
2023/09/25 07:36:57;;;;;;;4.00;3.00;;;16.30;34.30;;;;;;5030995;28;20411;-76
2023/09/25 07:39:23;;;;;;;6.60;2.80;;;16.40;34.10;;;;;;5043280;28;20483;-75
2023/09/25 07:41:50;;;;;;;9.70;2.90;;;16.40;33.10;;;;;;5049775;28;20385;-76
2023/09/25 07:44:16;;;;;;;6.40;2.90;;;16.50;32.30;;;;;;5049946;28;20389;-76
2023/09/25 07:46:43;;;;;;;4.40;2.60;;;16.50;32.30;;;;;;5050208;28;20398;-76
2023/09/25 07:49:09;;;;;;;5.45;2.90;;;16.50;31.10;;;;;;5050056;28;20425;-75
2023/09/25 07:51:35;;;;;;;3.60;2.30;;;16.60;31.20;;;;;;5049239;28;20475;-75
2023/09/25 07:54:03;;;;;;;3.17;2.22;;;16.60;31.60;;;;;;5043140;28;20465;-76
2023/09/25 07:56:30;;;;;;;5.95;2.53;;;16.60;30.90;;;;;;5012351;28;20495;-74
2023/09/25 07:58:55;;;;;;;7.47;2.63;;;16.80;30.10;;;;;;5030185;28;20752;-76
2023/09/25 08:01:22;;;;;;;5.40;2.72;;;16.80;30.60;;;;;;5029461;28;20384;-74
2023/09/25 08:03:51;;;;;;;5.38;2.85;;;16.90;29.70;;;;;;5030004;28;20379;-74
2023/09/25 08:06:19;;;;;;;5.63;2.78;;;17.00;28.80;;;;;;5030360;28;20391;-76
2023/09/25 08:08:47;;;;;;;5.25;2.33;;;17.10;28.50;;;;;;5047451;28;20393;-75
2023/09/25 08:11:15;;;;;;;5.85;2.50;;;17.20;28.40;;;;;;5047512;28;20385;-74
2023/09/25 08:13:41;;;;;;;3.17;2.30;;;17.20;28.00;;;;;;5050294;28;20822;-75
2023/09/25 08:16:07;;;;;;;4.00;2.70;;;17.30;28.00;;;;;;5031778;28;20505;-75
2023/09/25 08:18:33;;;;;;;4.22;3.05;;;17.50;27.50;;;;;;5049245;28;20717;-76
2023/09/25 08:20:59;;;;;;;4.57;2.58;;;17.60;27.70;;;;;;5030743;28;20402;-75
2023/09/25 08:23:26;;;;;;;6.53;3.10;;;17.80;26.80;;;;;;5031204;28;20757;-75
2023/09/25 08:25:51;;;;;;;3.65;2.63;;;17.90;26.50;;;;;;5049250;28;20385;-75
2023/09/25 08:28:18;;;;;;;7.25;2.80;;;18.00;25.90;;;;;;5030640;28;20481;-76
2023/09/25 08:30:44;;;;;;;5.95;3.05;;;18.10;25.40;;;;;;5049095;28;20425;-75
2023/09/25 08:33:10;;;;;;;12.13;3.60;;;18.30;25.40;;;;;;5048480;28;20717;-74
2023/09/25 08:35:36;;;;;;;6.03;3.50;;;18.40;24.00;;;;;;5047867;28;20389;-74
2023/09/25 08:38:02;;;;;;;6.87;3.53;;;18.50;24.10;;;;;;5048246;28;20405;-75
2023/09/25 08:40:31;;;;;;;4.63;2.70;;;18.60;24.30;;;;;;5048494;28;20386;-76
2023/09/25 08:42:57;;;;;;;6.53;2.70;;;18.70;23.90;;;;;;5049526;28;20425;-76
2023/09/25 08:45:23;;;;;;;6.80;3.95;;;18.80;23.50;;;;;;5031010;28;20393;-76
2023/09/25 08:47:49;;;;;;;18.23;3.40;;;19.00;23.20;;;;;;5048742;28;20800;-75
2023/09/25 08:50:15;;;;;;;7.43;3.07;;;19.10;23.10;;;;;;5048375;28;20460;-75
2023/09/25 08:52:41;;;;;;;6.97;3.00;;;19.10;21.40;;;;;;5036640;28;20401;-75
2023/09/25 08:55:08;;;;;;;6.13;3.00;;;19.10;21.90;;;;;;5030851;28;20393;-75
2023/09/25 08:57:37;;;;;;;5.47;2.90;;;19.10;21.50;;;;;;5033553;28;20434;-75
2023/09/25 09:00:15;;;;;;;5.07;2.80;;;19.20;20.00;;;;;;5013513;28;20387;-74
2023/09/25 09:02:41;;;;;;;5.35;2.60;;;19.20;20.30;;;;;;5033318;28;20459;-75
2023/09/25 09:05:12;;;;;;;7.83;3.03;;;19.20;20.40;;;;;;5039817;28;20482;-76
2023/09/25 09:07:39;;;;;;;8.77;3.80;;;19.30;20.40;;;;;;5031867;28;20386;-77
2023/09/25 09:10:06;;;;;;;6.63;3.57;;;19.30;20.20;;;;;;5024220;28;20441;-74
2023/09/25 09:12:50;;;;;;;6.60;3.90;;;19.40;20.30;;;;;;5043913;28;20435;-76
2023/09/25 09:15:24;;;;;;;13.48;2.85;;;19.60;19.90;;;;;;5031694;28;20905;-76
2023/09/25 09:17:50;;;;;;;14.60;5.45;;;19.50;19.90;;;;;;5052081;28;20437;-76
2023/09/25 09:20:15;;;;;;;8.53;4.70;;;19.60;20.00;;;;;;5052510;28;20412;-76
2023/09/25 09:22:52;;;;;;;7.22;4.63;;;19.70;20.50;;;;;;5039827;28;20387;-75
2023/09/25 09:25:27;;;;;;;5.90;2.50;;;19.80;19.80;;;;;;5038695;28;20434;-76
2023/09/25 09:27:53;;;;;;;6.60;3.38;;;19.80;19.50;;;;;;5036679;28;20455;-77
2023/09/25 09:30:24;;;;;;;6.30;2.90;;;19.80;19.30;;;;;;5054589;28;20421;-76
2023/09/25 09:32:50;;;;;;;12.88;3.90;;;19.80;19.00;;;;;;5053421;28;20401;-76
2023/09/25 09:35:19;;;;;;;6.85;3.47;;;19.70;19.70;;;;;;5066638;28;20886;-77
2023/09/25 09:37:48;;;;;;;5.05;3.15;;;19.80;19.40;;;;;;5059023;28;20756;-76
2023/09/25 09:40:14;;;;;;;9.88;4.05;;;19.70;19.10;;;;;;5053852;28;20394;-76
2023/09/25 09:42:41;;;;;;;7.18;2.60;;;19.80;19.10;;;;;;5052594;28;20389;-75
2023/09/25 09:45:08;;;;;;;7.13;3.20;;;19.90;19.10;;;;;;5034611;28;20471;-75
2023/09/25 09:47:40;;;;;;;15.77;6.95;;;20.00;18.90;;;;;;5037984;28;20461;-76
2023/09/25 09:50:08;;;;;;;7.15;4.35;;;20.10;20.60;;;;;;5051215;28;20377;-75
2023/09/25 09:52:35;;;;;;;10.18;4.60;;;20.30;19.20;;;;;;5051694;28;20695;-76
2023/09/25 09:55:04;;;;;;;7.40;3.78;;;20.20;19.90;;;;;;5051093;28;20790;-76
2023/09/25 09:57:30;;;;;;;10.63;4.50;;;20.20;19.80;;;;;;5052786;28;20409;-75
2023/09/25 09:59:56;;;;;;;7.18;3.67;;;20.30;20.30;;;;;;5055453;28;20785;-75
2023/09/25 10:02:22;;;;;;;5.50;3.20;;;20.30;20.20;;;;;;5055131;28;20381;-75
2023/09/25 10:04:48;;;;;;;12.18;6.25;;;20.40;19.40;;;;;;5052219;28;20746;-74
2023/09/25 10:07:14;;;;;;;11.35;4.97;;;20.60;19.90;;;;;;5053769;28;20462;-74
2023/09/25 10:09:56;;;;;;;7.73;3.77;;;20.70;19.00;;;;;;5055924;28;20397;-74
2023/09/25 10:12:37;;;;;;;8.80;3.60;;;20.60;19.10;;;;;;5056149;28;20385;-75
2023/09/25 10:15:06;;;;;;;8.85;4.35;;;20.60;18.20;;;;;;5055321;28;20498;-77
2023/09/25 10:17:40;;;;;;;15.55;6.07;;;20.60;18.50;;;;;;5055619;28;20416;-77
2023/09/25 10:20:36;;;;;;;9.15;4.57;;;20.80;18.90;;;;;;5057567;28;20378;-77
2023/09/25 10:23:09;;;;;;;8.73;3.90;;;20.80;18.00;;;;;;5038608;28;20385;-76
2023/09/25 10:25:55;;;;;;;9.65;4.68;;;20.80;18.30;;;;;;5057132;28;20381;-76
2023/09/25 10:28:37;;;;;;;7.82;4.00;;;20.80;18.30;;;;;;5056464;28;20390;-75
2023/09/25 10:31:04;;;;;;;12.50;4.90;;;20.90;18.40;;;;;;5055478;28;20703;-75
2023/09/25 10:33:33;;;;;;;5.43;2.80;;;20.90;18.10;;;;;;5055650;28;20389;-77
2023/09/25 10:36:05;;;;;;;9.32;4.25;;;20.80;17.10;;;;;;5055299;28;20389;-75
2023/09/25 10:38:34;;;;;;;7.65;4.00;;;20.90;18.50;;;;;;5054158;28;20766;-75
2023/09/25 10:41:06;;;;;;;6.15;2.97;;;21.10;18.10;;;;;;5035325;28;20762;-76
2023/09/25 10:43:32;;;;;;;12.10;4.47;;;21.20;16.70;;;;;;5035288;28;20374;-75
2023/09/25 10:45:58;;;;;;;7.88;4.43;;;21.30;17.40;;;;;;5053240;28;20432;-76
2023/09/25 10:48:27;;;;;;;6.45;3.38;;;21.40;17.40;;;;;;5053811;28;20420;-76
2023/09/25 10:50:54;;;;;;;6.57;3.20;;;21.40;16.50;;;;;;5035778;28;20735;-76
2023/09/25 10:53:21;;;;;;;7.60;3.00;;;21.40;16.90;;;;;;5053185;28;20385;-75
2023/09/25 10:55:47;;;;;;;6.15;3.40;;;21.50;15.80;;;;;;5052956;28;20400;-76
2023/09/25 10:58:14;;;;;;;8.60;2.80;;;21.40;16.40;;;;;;5053398;28;20405;-74
2023/09/25 11:00:41;;;;;;;6.50;2.75;;;21.40;16.70;;;;;;5053345;28;20770;-76
2023/09/25 11:03:07;;;;;;;9.98;2.72;;;21.50;16.70;;;;;;5053073;28;20385;-76
2023/09/25 11:05:35;;;;;;;4.28;2.90;;;21.60;16.80;;;;;;5053612;28;20384;-76
2023/09/25 11:08:01;;;;;;;4.20;2.90;;;21.60;16.30;;;;;;5035912;28;20465;-76
2023/09/25 11:10:31;;;;;;;6.63;3.63;;;21.60;16.30;;;;;;5052915;28;20392;-76
2023/09/25 11:12:57;;;;;;;5.05;2.70;;;21.60;16.60;;;;;;5053052;28;20846;-75
2023/09/25 11:15:26;;;;;;;6.47;3.53;;;21.60;16.00;;;;;;5053526;28;20400;-76
2023/09/25 11:17:52;;;;;;;9.10;4.47;;;21.60;16.40;;;;;;5051688;28;20551;-76
2023/09/25 11:20:22;;;;;;;4.85;2.75;;;21.80;17.10;;;;;;5052542;28;20439;-75
2023/09/25 11:22:49;;;;;;;5.25;3.05;;;21.80;14.80;;;;;;5045765;28;20476;-75
2023/09/25 11:25:15;;;;;;;11.10;4.70;;;22.00;14.90;;;;;;5057887;28;20475;-75
2023/09/25 11:27:55;;;;;;;10.57;3.03;;;22.10;15.30;;;;;;5054522;28;20377;-77
2023/09/25 11:30:26;;;;;;;11.32;5.70;;;22.10;15.00;;;;;;5053647;28;20410;-77
2023/09/25 11:32:52;;;;;;;5.45;2.33;;;22.20;15.70;;;;;;5061543;28;20386;-77
2023/09/25 11:35:22;;;;;;;7.32;4.20;;;22.20;15.50;;;;;;5063858;28;20754;-76
2023/09/25 11:38:15;;;;;;;22.92;10.80;;;22.20;15.10;;;;;;5022796;28;20411;-77
2023/09/25 11:40:41;;;;;;;6.03;1.95;;;22.40;14.80;;;;;;5051194;28;20389;-76
2023/09/25 11:43:07;;;;;;;3.50;2.10;;;22.50;13.90;;;;;;5065439;28;20392;-77
2023/09/25 11:45:33;;;;;;;9.80;5.10;;;22.40;13.80;;;;;;5047382;28;20393;-76
2023/09/25 11:48:01;;;;;;;5.40;2.80;;;22.50;14.40;;;;;;5059016;28;20496;-76
2023/09/25 11:50:26;;;;;;;4.90;2.60;;;22.50;14.40;;;;;;5062626;28;20405;-76
2023/09/25 11:52:52;;;;;;;3.30;2.05;;;22.60;13.70;;;;;;5064928;28;20389;-75
2023/09/25 11:55:19;;;;;;;6.28;3.10;;;22.70;13.20;;;;;;5037578;28;20447;-77
2023/09/25 11:57:45;;;;;;;5.80;2.50;;;22.80;14.50;;;;;;5053002;28;20405;-77
2023/09/25 12:00:13;;;;;;;6.20;2.70;;;22.80;13.10;;;;;;5056718;28;20472;-77
2023/09/25 12:02:43;;;;;;;5.70;2.30;;;23.00;13.60;;;;;;5055759;28;20384;-75
2023/09/25 12:05:09;;;;;;;5.32;2.20;;;22.90;12.90;;;;;;5053226;28;20385;-76
2023/09/25 12:07:36;;;;;;;2.88;1.73;;;22.80;12.50;;;;;;5054209;28;20394;-76
2023/09/25 12:10:08;;;;;;;3.53;2.13;;;22.70;12.60;;;;;;5056468;28;20385;-76
2023/09/25 12:12:41;;;;;;;4.85;2.30;;;22.70;12.00;;;;;;5036268;28;20397;-77
2023/09/25 12:15:08;;;;;;;4.40;2.20;;;22.60;12.50;;;;;;5053541;28;20390;-76
2023/09/25 12:17:35;;;;;;;5.50;2.70;;;22.60;12.30;;;;;;5054059;28;20495;-77
2023/09/25 12:20:06;;;;;;;4.18;2.20;;;22.60;12.70;;;;;;5054794;28;20465;-76
2023/09/25 12:22:32;;;;;;;3.42;2.00;;;22.60;11.80;;;;;;5053350;28;20409;-77
2023/09/25 12:24:58;;;;;;;3.55;2.40;;;22.80;11.50;;;;;;5052865;28;20423;-75
2023/09/25 12:27:23;;;;;;;3.80;2.03;;;22.80;11.70;;;;;;5052288;28;20382;-75
2023/09/25 12:29:49;;;;;;;4.78;2.50;;;22.70;11.60;;;;;;5052060;28;20400;-77
2023/09/25 12:32:14;;;;;;;4.83;2.07;;;22.80;12.40;;;;;;5053348;28;20412;-78
2023/09/25 12:34:40;;;;;;;4.70;2.08;;;22.80;11.80;;;;;;5056059;28;20413;-78
2023/09/25 12:37:06;;;;;;;6.57;2.05;;;22.90;12.30;;;;;;5056617;28;20449;-76
2023/09/25 12:39:34;;;;;;;4.78;2.50;;;23.00;12.10;;;;;;5055775;28;20385;-77
2023/09/25 12:42:00;;;;;;;2.60;1.80;;;23.30;11.80;;;;;;5055677;28;20859;-77
2023/09/25 12:44:26;;;;;;;7.75;2.17;;;23.70;11.60;;;;;;5056233;28;20385;-75